Time;durP1;ratioP1;P1;durP2;ratioP2;P2;SDS_P1;SDS_P2;PMS_P1;PMS_P2;Temp;Humidity;BMP_temperature;BMP_pressure;BME280_temperature;BME280_humidity;BME280_pressure;Samples;Min_cycle;Max_cycle;Signal;HPM_P1;HPM_P2
2021/08/10 00:00:52;;;;;;;11.90;10.57;;;;;;;25.26;100.00;99919.59;1641459;86;21038;-67
2021/08/10 00:03:18;;;;;;;13.23;10.67;;;;;;;25.27;100.00;99919.84;1643347;86;21161;-65
2021/08/10 00:05:49;;;;;;;11.30;10.10;;;;;;;25.25;100.00;99918.80;1650925;86;20967;-63
2021/08/10 00:08:19;;;;;;;14.07;11.20;;;;;;;25.25;100.00;99908.13;1653462;86;21146;-67
2021/08/10 00:10:48;;;;;;;11.57;10.40;;;;;;;25.30;100.00;99905.92;1653503;86;21561;-67
2021/08/10 00:13:20;;;;;;;12.73;10.80;;;;;;;25.29;100.00;99905.68;1650350;86;20931;-64
2021/08/10 00:15:47;;;;;;;12.57;9.80;;;;;;;25.30;100.00;99891.25;1652738;86;21173;-63
2021/08/10 00:18:13;;;;;;;11.23;9.83;;;;;;;25.31;100.00;99888.31;1653416;86;21070;-66
2021/08/10 00:20:40;;;;;;;13.23;10.67;;;;;;;25.31;100.00;99893.65;1652531;86;21094;-67
2021/08/10 00:23:06;;;;;;;12.80;10.47;;;;;;;25.36;100.00;99893.56;1653433;86;21092;-67
2021/08/10 00:25:34;;;;;;;14.50;11.60;;;;;;;25.39;100.00;99903.66;1652639;86;21030;-67
2021/08/10 00:28:03;;;;;;;18.07;16.17;;;;;;;25.39;100.00;99902.87;1652725;86;21181;-66
2021/08/10 00:30:30;;;;;;;19.37;17.03;;;;;;;25.37;100.00;99899.69;1653439;86;21097;-66
2021/08/10 00:32:57;;;;;;;17.70;15.90;;;;;;;25.34;100.00;99895.71;1653390;86;21125;-61
2021/08/10 00:35:25;;;;;;;18.03;15.40;;;;;;;25.30;100.00;99894.70;1652719;86;21580;-65
2021/08/10 00:37:51;;;;;;;18.93;13.93;;;;;;;25.25;100.00;99890.80;1652585;86;21160;-65
2021/08/10 00:40:19;;;;;;;13.53;12.13;;;;;;;25.22;100.00;99879.36;1653477;86;21160;-65
2021/08/10 00:42:47;;;;;;;12.73;11.43;;;;;;;25.22;100.00;99885.48;1653375;86;21011;-65
2021/08/10 00:45:14;;;;;;;15.23;11.90;;;;;;;25.23;100.00;99887.09;1650513;85;21145;-60
2021/08/10 00:47:41;;;;;;;13.43;12.10;;;;;;;25.28;100.00;99878.76;1652895;86;22441;-61
2021/08/10 00:50:09;;;;;;;13.33;11.90;;;;;;;25.32;100.00;99875.76;1653374;86;21114;-62
2021/08/10 00:52:37;;;;;;;13.20;11.27;;;;;;;25.37;100.00;99867.67;1653371;86;21523;-61
2021/08/10 00:55:06;;;;;;;13.77;11.37;;;;;;;25.36;100.00;99872.77;1653260;86;21139;-66
2021/08/10 00:57:34;;;;;;;13.57;12.27;;;;;;;25.36;100.00;99874.09;1652694;86;20920;-60
2021/08/10 01:00:04;;;;;;;14.40;12.23;;;;;;;25.38;100.00;99874.06;1628786;86;21039;-66
2021/08/10 01:02:32;;;;;;;14.23;11.57;;;;;;;25.36;100.00;99873.55;1651655;86;21055;-65
2021/08/10 01:04:59;;;;;;;13.13;11.73;;;;;;;25.34;100.00;99877.03;1651282;86;21158;-62
2021/08/10 01:07:45;;;;;;;16.10;10.63;;;;;;;25.33;100.00;99881.34;1652764;86;22715;-65
2021/08/10 01:10:24;;;;;;;13.40;11.33;;;;;;;25.33;100.00;99877.34;1653452;86;21517;-66
2021/08/10 01:13:12;;;;;;;15.73;11.63;;;;;;;25.31;100.00;99874.97;1652868;86;21493;-66
2021/08/10 01:15:48;;;;;;;12.80;10.97;;;;;;;25.31;100.00;99878.97;1652731;86;21380;-66
2021/08/10 01:18:22;;;;;;;11.73;10.60;;;;;;;25.28;100.00;99879.55;1652829;86;21103;-65
2021/08/10 01:21:18;;;;;;;12.80;11.60;;;;;;;25.26;100.00;99883.03;1651597;85;21027;-63
2021/08/10 01:23:53;;;;;;;11.80;10.63;;;;;;;25.27;100.00;99883.30;1652499;86;20963;-65
2021/08/10 01:26:50;;;;;;;11.27;10.10;;;;;;;25.25;100.00;99884.13;1628140;86;21597;-65
2021/08/10 01:29:26;;;;;;;11.43;10.23;;;;;;;25.24;100.00;99881.21;1651896;86;21492;-63
2021/08/10 01:31:52;;;;;;;11.03;9.60;;;;;;;25.24;100.00;99873.20;1650398;85;21149;-62
2021/08/10 01:34:37;;;;;;;11.40;10.20;;;;;;;25.25;100.00;99877.45;1653191;86;21161;-67
2021/08/10 01:37:20;;;;;;;12.63;10.80;;;;;;;25.28;100.00;99880.88;1652218;86;22405;-66
2021/08/10 01:39:52;;;;;;;11.30;10.10;;;;;;;25.28;100.00;99882.22;1630045;86;21669;-66
2021/08/10 01:42:20;;;;;;;14.73;11.55;;;;;;;25.24;100.00;99878.00;1650917;86;21079;-67
2021/08/10 01:44:47;;;;;;;12.80;10.40;;;;;;;25.21;100.00;99873.78;1652789;86;21149;-65
2021/08/10 01:47:13;;;;;;;14.23;11.07;;;;;;;25.20;100.00;99870.87;1653524;86;21448;-65
2021/08/10 01:49:41;;;;;;;13.83;12.40;;;;;;;25.13;100.00;99867.77;1606657;86;20984;-63
2021/08/10 01:52:15;;;;;;;14.77;11.83;;;;;;;25.07;100.00;99863.55;1651129;86;21122;-63
2021/08/10 01:54:42;;;;;;;13.10;11.23;;;;;;;25.01;100.00;99870.84;1652380;86;21521;-64
2021/08/10 01:57:11;;;;;;;15.60;13.97;;;;;;;25.00;100.00;99865.23;1653500;86;21568;-63
2021/08/10 01:59:39;;;;;;;16.62;14.05;;;;;;;24.89;100.00;99867.79;1652441;86;21015;-63
2021/08/10 02:02:07;;;;;;;18.40;15.90;;;;;;;24.86;100.00;99871.05;1653523;86;21098;-62
2021/08/10 02:04:35;;;;;;;18.27;15.37;;;;;;;24.72;100.00;99880.28;1652866;86;21880;-61
2021/08/10 02:07:03;;;;;;;17.83;15.13;;;;;;;24.68;100.00;99885.94;1653462;86;21200;-64
2021/08/10 02:09:30;;;;;;;16.77;14.30;;;;;;;24.60;100.00;99890.56;1653496;86;21058;-64
2021/08/10 02:11:57;;;;;;;15.00;13.23;;;;;;;24.48;100.00;99889.09;1653057;86;21102;-64
2021/08/10 02:14:26;;;;;;;14.77;13.30;;;;;;;24.44;100.00;99888.63;1650998;85;21008;-61
2021/08/10 02:16:57;;;;;;;14.67;12.07;;;;;;;24.39;100.00;99888.66;1653657;85;21062;-63
2021/08/10 02:19:25;;;;;;;14.80;12.13;;;;;;;24.35;100.00;99891.06;1655281;85;21027;-63
2021/08/10 02:22:03;;;;;;;19.47;14.10;;;;;;;24.38;100.00;99891.05;1631280;86;21839;-63
2021/08/10 02:25:01;;;;;;;17.13;14.97;;;;;;;24.39;100.00;99886.78;1652251;85;21058;-63
2021/08/10 02:27:50;;;;;;;17.60;14.93;;;;;;;24.39;100.00;99881.46;1653616;85;21069;-63
2021/08/10 02:30:25;;;;;;;17.77;15.37;;;;;;;24.35;100.00;99883.62;1655634;85;21090;-64
2021/08/10 02:32:53;;;;;;;21.00;15.40;;;;;;;24.37;100.00;99885.48;1652538;85;21158;-63
2021/08/10 02:35:22;;;;;;;16.17;13.87;;;;;;;24.31;100.00;99884.72;1654073;85;21147;-63
2021/08/10 02:37:49;;;;;;;18.23;15.47;;;;;;;24.30;100.00;99883.69;1656758;85;22050;-62
2021/08/10 02:40:19;;;;;;;18.43;15.80;;;;;;;24.31;100.00;99886.05;1656316;85;21536;-63
2021/08/10 02:42:53;;;;;;;18.93;17.03;;;;;;;24.32;100.00;99886.84;1651749;85;21619;-63
2021/08/10 02:45:20;;;;;;;22.97;15.53;;;;;;;24.34;100.00;99892.16;1654309;85;21097;-63
2021/08/10 02:47:53;;;;;;;18.30;15.00;;;;;;;24.38;100.00;99892.38;1655937;85;22251;-63
2021/08/10 02:50:22;;;;;;;17.80;15.23;;;;;;;24.41;100.00;99895.30;1651139;85;21030;-63
2021/08/10 02:52:49;;;;;;;21.83;15.93;;;;;;;24.46;100.00;99891.23;1655161;85;20971;-61
2021/08/10 02:55:21;;;;;;;21.00;16.53;;;;;;;24.48;100.00;99895.76;1655597;85;21635;-62
2021/08/10 02:58:02;;;;;;;22.65;16.27;;;;;;;24.50;100.00;99890.92;1656907;85;21027;-63
2021/08/10 03:00:30;;;;;;;20.73;15.63;;;;;;;24.57;100.00;99879.14;1660749;82;22583;-63
2021/08/10 03:03:13;;;;;;;19.40;16.10;;;;;;;24.68;100.00;99884.60;1666514;84;21163;-63
2021/08/10 03:05:42;;;;;;;19.30;17.20;;;;;;;24.70;100.00;99881.09;1665810;85;20996;-63
2021/08/10 03:08:14;;;;;;;18.80;16.00;;;;;;;24.72;100.00;99879.73;1664106;85;21048;-61
2021/08/10 03:10:41;;;;;;;16.80;15.00;;;;;;;24.72;100.00;99880.28;1666741;85;21027;-63
2021/08/10 03:13:09;;;;;;;22.07;15.67;;;;;;;24.79;100.00;99871.40;1667216;84;21181;-64
2021/08/10 03:15:38;;;;;;;19.50;16.83;;;;;;;24.82;100.00;99868.16;1667140;85;20995;-63
2021/08/10 03:18:10;;;;;;;18.67;16.50;;;;;;;24.87;100.00;99865.42;1666517;86;21075;-61
2021/08/10 03:20:42;;;;;;;22.00;18.33;;;;;;;24.93;100.00;99860.28;1666949;85;21367;-63
2021/08/10 03:23:12;;;;;;;;;;;;;;;24.95;100.00;99854.11;1666845;86;21049;-64
2021/08/10 03:25:39;;;;;;;22.02;17.60;;;;;;;24.98;100.00;99856.20;1648872;85;21148;-63
2021/08/10 03:28:08;;;;;;;15.10;11.57;;;;;;;24.97;100.00;99851.17;1666314;85;20984;-64
2021/08/10 03:30:35;;;;;;;16.37;12.50;;;;;;;24.98;100.00;99850.87;1649747;86;21357;-65
2021/08/10 03:33:02;;;;;;;13.10;11.73;;;;;;;25.05;100.00;99843.06;1627575;86;21083;-65
2021/08/10 03:35:30;;;;;;;15.43;11.53;;;;;;;25.13;100.00;99840.55;1667301;86;21123;-65
2021/08/10 03:37:57;;;;;;;13.10;10.70;;;;;;;25.24;100.00;99837.20;1665325;86;21149;-61
2021/08/10 03:40:24;;;;;;;12.97;11.60;;;;;;;25.33;100.00;99835.98;1664900;85;20980;-66
2021/08/10 03:42:51;;;;;;;12.83;11.50;;;;;;;25.43;100.00;99835.28;1667087;86;20944;-65
2021/08/10 03:45:22;;;;;;;13.60;10.53;;;;;;;25.46;100.00;99833.37;1667201;86;21004;-66
2021/08/10 03:47:49;;;;;;;14.37;11.00;;;;;;;25.53;100.00;99830.30;1667090;84;21048;-61
2021/08/10 03:50:16;;;;;;;13.63;10.63;;;;;;;25.59;100.00;99829.14;1648663;84;21156;-64
2021/08/10 03:52:43;;;;;;;12.80;10.57;;;;;;;25.64;100.00;99818.37;1662975;86;21573;-66
2021/08/10 03:55:11;;;;;;;13.10;11.10;;;;;;;25.74;100.00;99822.75;1664325;86;21040;-65
2021/08/10 03:57:38;;;;;;;13.60;11.07;;;;;;;25.81;100.00;99820.52;1667023;85;21012;-66
2021/08/10 04:00:07;;;;;;;14.73;10.97;;;;;;;25.83;100.00;99811.66;1666417;84;21024;-64
2021/08/10 04:02:35;;;;;;;14.25;11.80;;;;;;;25.89;100.00;99819.05;1680481;85;21121;-64
2021/08/10 04:05:03;;;;;;;13.80;10.33;;;;;;;25.90;100.00;99826.75;1684033;85;21090;-65
2021/08/10 04:07:31;;;;;;;12.87;10.67;;;;;;;25.94;100.00;99826.41;1683192;84;21058;-63
2021/08/10 04:09:59;;;;;;;16.13;13.27;;;;;;;25.96;100.00;99826.91;1682852;85;21073;-58
2021/08/10 04:12:26;;;;;;;19.57;15.10;;;;;;;26.04;100.00;99840.13;1680730;84;20984;-62
2021/08/10 04:14:53;;;;;;;19.00;15.07;;;;;;;26.09;100.00;99836.56;1613087;87;21186;-63
2021/08/10 04:17:26;;;;;;;18.97;16.57;;;;;;;26.07;100.00;99844.09;1682827;85;21050;-63
2021/08/10 04:19:57;;;;;;;22.90;16.20;;;;;;;26.06;100.00;99850.50;1656903;85;20935;-60
2021/08/10 04:22:24;;;;;;;22.00;16.70;;;;;;;26.03;100.00;99850.57;1681024;85;21090;-64
2021/08/10 04:24:50;;;;;;;24.07;16.43;;;;;;;26.08;100.00;99853.13;1681752;85;21114;-64
2021/08/10 04:27:18;;;;;;;26.80;18.27;;;;;;;26.10;100.00;99848.30;1681623;85;21165;-64
2021/08/10 04:29:47;;;;;;;27.63;15.77;;;;;;;26.20;100.00;99839.28;1680972;85;21023;-62
2021/08/10 04:32:14;;;;;;;18.03;13.00;;;;;;;26.31;100.00;99829.98;1680543;85;21854;-61
2021/08/10 04:34:41;;;;;;;10.53;9.13;;;;;;;26.41;100.00;99815.08;1680558;83;21090;-66
2021/08/10 04:37:08;;;;;;;9.78;8.33;;;;;;;26.60;100.00;99817.66;1681527;85;21109;-66
2021/08/10 04:39:36;;;;;;;11.90;7.87;;;;;;;26.84;100.00;99810.70;1681347;85;21147;-64
2021/08/10 04:42:06;;;;;;;8.57;7.50;;;;;;;27.13;100.00;99810.89;1658035;85;21545;-65
2021/08/10 04:44:32;;;;;;;11.12;7.67;;;;;;;27.42;100.00;99807.75;1681005;85;21050;-66
2021/08/10 04:46:59;;;;;;;13.58;7.92;;;;;;;27.74;100.00;99802.69;1681738;85;21376;-66
2021/08/10 04:49:25;;;;;;;16.65;8.95;;;;;;;28.03;100.00;99802.16;1639672;86;21149;-66
2021/08/10 04:51:53;;;;;;;11.88;8.58;;;;;;;28.24;100.00;99808.30;1684108;85;21139;-62
2021/08/10 04:54:21;;;;;;;12.90;10.38;;;;;;;28.39;100.00;99804.42;1681542;84;21169;-65
2021/08/10 04:56:48;;;;;;;12.50;9.80;;;;;;;28.49;100.00;99804.09;1680846;85;20972;-65
2021/08/10 04:59:15;;;;;;;11.80;9.25;;;;;;;28.45;100.00;99801.81;1639610;86;21391;-67
2021/08/10 05:01:44;;;;;;;13.62;9.90;;;;;;;28.44;100.00;99798.90;1678228;84;21532;-63
2021/08/10 05:04:10;;;;;;;14.10;9.13;;;;;;;28.44;100.00;99804.26;1666682;84;21506;-67
2021/08/10 05:06:38;;;;;;;13.98;10.32;;;;;;;28.52;100.00;99802.14;1622809;87;21082;-62
2021/08/10 05:09:08;;;;;;;13.75;10.50;;;;;;;28.62;100.00;99799.16;1623397;88;21063;-67
2021/08/10 05:11:36;;;;;;;;;;;;;;;28.69;100.00;99795.45;1667245;84;21032;-62
2021/08/10 05:14:03;;;;;;;13.43;11.15;;;;;;;28.90;100.00;99795.59;1666194;84;20501;-67
2021/08/10 05:16:30;;;;;;;17.27;10.58;;;;;;;29.00;100.00;99792.63;1666930;86;21205;-62
2021/08/10 05:18:58;;;;;;;16.73;9.83;;;;;;;29.13;100.00;99792.77;1666198;86;21539;-66
2021/08/10 05:21:26;;;;;;;10.80;8.93;;;;;;;29.14;100.00;99785.76;1623053;87;21083;-67
2021/08/10 05:23:55;;;;;;;11.93;8.90;;;;;;;29.18;100.00;99785.36;1625110;88;21094;-66
2021/08/10 05:26:24;;;;;;;19.40;10.63;;;;;;;29.30;100.00;99782.80;1667141;86;20972;-61
2021/08/10 05:28:51;;;;;;;12.45;9.38;;;;;;;29.47;100.00;99777.13;1665757;85;21052;-66
2021/08/10 05:31:18;;;;;;;10.40;8.70;;;;;;;29.57;100.00;99782.17;1666525;85;21566;-66
2021/08/10 05:33:45;;;;;;;11.30;8.55;;;;;;;29.48;100.00;99780.08;1666071;86;21569;-68
2021/08/10 05:36:11;;;;;;;12.53;8.50;;;;;;;29.32;100.00;99786.49;1666711;85;21091;-67
2021/08/10 05:38:43;;;;;;;10.25;7.55;;;;;;;29.23;100.00;99783.05;1666395;85;21019;-64
2021/08/10 05:41:10;;;;;;;12.65;8.85;;;;;;;29.28;100.00;99780.19;1666427;85;21158;-67
2021/08/10 05:43:37;;;;;;;12.00;7.35;;;;;;;29.31;100.00;99772.28;1613136;88;21028;-64
2021/08/10 05:46:06;;;;;;;10.35;7.35;;;;;;;29.31;100.00;99772.28;1620354;86;21137;-66
2021/08/10 05:48:32;;;;;;;9.75;8.75;;;;;;;29.27;100.00;99777.28;1626155;88;21088;-66
2021/08/10 05:51:03;;;;;;;13.40;8.68;;;;;;;29.26;100.00;99777.84;1664248;84;21079;-63
2021/08/10 05:53:32;;;;;;;9.58;8.10;;;;;;;29.31;100.00;99790.30;1622731;88;21161;-63
2021/08/10 05:55:59;;;;;;;8.48;7.55;;;;;;;29.14;100.00;99802.42;1625433;88;21378;-63
2021/08/10 05:58:28;;;;;;;9.38;7.65;;;;;;;28.84;100.00;99817.00;1666967;85;21047;-62
2021/08/10 06:00:56;;;;;;;10.68;7.90;;;;;;;28.52;100.00;99820.34;1661223;86;21209;-62
2021/08/10 06:03:24;;;;;;;9.53;8.05;;;;;;;28.26;100.00;99827.52;1636139;85;21108;-65
2021/08/10 06:05:50;;;;;;;15.18;7.70;;;;;;;28.02;100.00;99830.05;1682867;85;22447;-66
2021/08/10 06:08:18;;;;;;;13.85;7.87;;;;;;;27.87;100.00;99824.55;1639566;86;20963;-65
2021/08/10 06:10:49;;;;;;;10.53;7.60;;;;;;;27.80;100.00;99822.86;1636369;86;21070;-61
2021/08/10 06:13:17;;;;;;;10.95;8.23;;;;;;;27.71;100.00;99830.60;1683138;85;21754;-65
2021/08/10 06:15:44;;;;;;;12.10;8.05;;;;;;;27.58;100.00;99828.26;1639431;87;21667;-64
2021/08/10 06:18:11;;;;;;;9.75;7.90;;;;;;;27.51;100.00;99830.58;1639476;86;21143;-63
2021/08/10 06:20:39;;;;;;;9.48;7.28;;;;;;;27.50;100.00;99829.77;1683400;85;20983;-62
2021/08/10 06:23:06;;;;;;;11.15;8.08;;;;;;;27.53;100.00;99825.69;1659842;85;21055;-66
2021/08/10 06:25:35;;;;;;;9.23;7.60;;;;;;;27.62;100.00;99825.20;1675482;85;21532;-63
2021/08/10 06:28:02;;;;;;;12.13;7.03;;;;;;;27.72;100.00;99825.48;1681405;85;21205;-66
2021/08/10 06:30:29;;;;;;;10.72;8.20;;;;;;;27.80;100.00;99824.20;1681557;85;21155;-66
2021/08/10 06:32:56;;;;;;;11.15;8.05;;;;;;;27.86;100.00;99818.17;1638699;86;21011;-65
2021/08/10 06:35:23;;;;;;;10.03;7.12;;;;;;;27.96;100.00;99818.44;1636106;86;21372;-62
2021/08/10 06:37:51;;;;;;;12.43;7.37;;;;;;;28.05;100.00;99810.68;1638556;86;21508;-66
2021/08/10 06:40:20;;;;;;;9.43;6.80;;;;;;;28.16;100.00;99805.83;1639290;86;21052;-65
2021/08/10 06:42:49;;;;;;;10.28;7.33;;;;;;;28.24;100.00;99801.59;1639061;86;21170;-61
2021/08/10 06:45:17;;;;;;;11.40;7.83;;;;;;;28.28;100.00;99802.55;1639618;86;20978;-65
2021/08/10 06:47:44;;;;;;;12.85;7.50;;;;;;;28.32;100.00;99793.56;1637321;86;21106;-67
2021/08/10 06:50:13;;;;;;;13.38;7.70;;;;;;;28.41;100.00;99792.27;1639918;86;21389;-66
2021/08/10 06:52:39;;;;;;;11.08;7.17;;;;;;;28.48;100.00;99797.16;1639794;87;21075;-64
2021/08/10 06:55:08;;;;;;;8.75;7.67;;;;;;;28.53;100.00;99800.50;1682500;85;21170;-61
2021/08/10 06:57:34;;;;;;;10.78;7.10;;;;;;;28.58;100.00;99795.53;1639619;86;21331;-60
2021/08/10 07:00:01;;;;;;;10.63;7.85;;;;;;;28.68;100.00;99795.23;1682549;84;21062;-63
2021/08/10 07:02:28;;;;;;;10.88;6.47;;;;;;;28.86;100.00;99786.61;1639699;86;20955;-63
2021/08/10 07:04:55;;;;;;;8.53;6.35;;;;;;;29.12;100.00;99780.47;1683980;85;20971;-62
2021/08/10 07:07:21;;;;;;;9.38;6.37;;;;;;;29.36;100.00;99780.75;1682579;85;21384;-63
2021/08/10 07:09:48;;;;;;;10.58;6.08;;;;;;;29.56;99.61;99778.70;1639390;87;21097;-63
2021/08/10 07:12:15;;;;;;;10.32;6.80;;;;;;;29.75;100.00;99777.55;1637891;86;21081;-64
2021/08/10 07:14:43;;;;;;;13.03;6.45;;;;;;;29.98;99.16;99780.20;1638445;87;21554;-63
2021/08/10 07:17:10;;;;;;;9.60;6.67;;;;;;;30.28;97.66;99778.88;1683028;84;21754;-63
2021/08/10 07:19:39;;;;;;;7.42;6.47;;;;;;;30.51;88.76;99777.45;1681204;84;21531;-64
2021/08/10 07:22:07;;;;;;;11.35;6.35;;;;;;;30.64;75.99;99776.94;1680153;85;21026;-62
2021/08/10 07:24:34;;;;;;;11.28;5.90;;;;;;;30.74;76.61;99774.45;1638741;86;21039;-63
2021/08/10 07:27:01;;;;;;;8.75;5.95;;;;;;;30.94;77.89;99772.84;1683556;84;21062;-64
2021/08/10 07:29:29;;;;;;;10.18;6.00;;;;;;;31.24;74.95;99772.93;1680705;85;21087;-64
2021/08/10 07:31:57;;;;;;;10.28;5.45;;;;;;;31.62;73.06;99774.59;1637358;87;21112;-64
2021/08/10 07:34:24;;;;;;;7.22;5.05;;;;;;;32.08;62.65;99767.19;1683296;85;21536;-61
2021/08/10 07:36:52;;;;;;;9.35;4.95;;;;;;;32.54;57.14;99765.09;1624119;87;21512;-65
2021/08/10 07:39:19;;;;;;;11.18;5.10;;;;;;;33.02;54.13;99766.63;1682322;84;21523;-62
2021/08/10 07:41:47;;;;;;;10.23;5.15;;;;;;;33.45;53.75;99760.95;1681348;84;21105;-65
2021/08/10 07:44:14;;;;;;;7.62;4.67;;;;;;;34.02;49.25;99755.03;1638901;87;22105;-65
2021/08/10 07:46:43;;;;;;;7.55;4.55;;;;;;;34.47;46.85;99756.34;1683209;85;21085;-64
2021/08/10 07:49:11;;;;;;;11.80;5.30;;;;;;;34.63;45.59;99754.97;1637855;87;21008;-63
2021/08/10 07:51:39;;;;;;;8.88;5.25;;;;;;;34.71;45.87;99753.18;1683354;85;21161;-64
2021/08/10 07:54:05;;;;;;;9.28;5.22;;;;;;;34.78;45.68;99744.63;1681211;85;21644;-64
2021/08/10 07:56:33;;;;;;;7.85;4.60;;;;;;;34.89;45.06;99748.85;1639052;86;21165;-64
2021/08/10 07:59:01;;;;;;;10.35;4.85;;;;;;;34.99;43.55;99744.78;1683266;85;21559;-61
2021/08/10 08:01:29;;;;;;;10.88;4.97;;;;;;;34.94;42.53;99739.67;1681587;84;21556;-63
2021/08/10 08:03:56;;;;;;;12.78;5.28;;;;;;;34.85;41.65;99742.59;1685460;84;21006;-64
2021/08/10 08:06:23;;;;;;;12.33;4.80;;;;;;;34.89;42.07;99741.30;1686049;84;21612;-65
2021/08/10 08:08:50;;;;;;;7.70;4.30;;;;;;;35.08;42.26;99739.39;1686892;84;21113;-63
2021/08/10 08:11:18;;;;;;;10.23;3.50;;;;;;;35.34;40.71;99732.44;1682201;84;21493;-65
2021/08/10 08:13:45;;;;;;;9.33;4.65;;;;;;;35.47;40.73;99733.05;1685779;84;21118;-65
2021/08/10 08:16:13;;;;;;;6.65;3.98;;;;;;;35.49;38.95;99736.97;1649056;85;21657;-65
2021/08/10 08:18:43;;;;;;;9.18;4.78;;;;;;;35.37;40.03;99729.59;1620394;87;21560;-65
2021/08/10 08:21:11;;;;;;;10.13;4.62;;;;;;;35.09;40.20;99734.17;1619327;87;21155;-66
2021/08/10 08:23:39;;;;;;;11.18;6.15;;;;;;;34.68;41.39;99735.72;1620059;87;22442;-63
2021/08/10 08:26:06;;;;;;;8.43;4.40;;;;;;;34.24;42.85;99727.84;1687696;84;21504;-66
2021/08/10 08:28:34;;;;;;;11.20;4.30;;;;;;;33.86;44.11;99726.63;1686848;84;21035;-66
2021/08/10 08:31:02;;;;;;;9.28;5.17;;;;;;;33.55;45.79;99725.33;1685339;84;21620;-63
2021/08/10 08:33:29;;;;;;;6.65;4.35;;;;;;;33.28;47.22;99724.27;1686006;84;22228;-65
2021/08/10 08:35:56;;;;;;;8.83;5.75;;;;;;;33.08;47.93;99717.42;1689056;84;20963;-65
2021/08/10 08:38:23;;;;;;;10.20;4.70;;;;;;;32.88;50.41;99715.16;1689297;84;21010;-66
2021/08/10 08:40:51;;;;;;;7.30;4.85;;;;;;;32.64;51.11;99718.74;1687978;84;37987;-61
2021/08/10 08:43:18;;;;;;;9.43;5.42;;;;;;;32.30;53.74;99717.94;1647280;85;21533;-67
2021/08/10 08:45:45;;;;;;;11.45;5.25;;;;;;;31.92;51.45;99711.06;1621099;88;21153;-65
2021/08/10 08:48:13;;;;;;;12.03;5.42;;;;;;;31.52;51.35;99711.74;1621079;87;20982;-66
2021/08/10 08:50:43;;;;;;;11.03;5.12;;;;;;;31.17;53.03;99704.59;1618934;87;20990;-61
2021/08/10 08:53:12;;;;;;;19.60;6.60;;;;;;;30.95;56.74;99700.39;1679070;83;21705;-66
2021/08/10 08:55:44;;;;;;;11.88;6.95;;;;;;;30.73;60.43;99699.64;1687746;84;21678;-65
2021/08/10 08:58:15;;;;;;;8.13;5.62;;;;;;;30.49;65.98;99703.57;1687755;84;21220;-64
2021/08/10 09:00:43;;;;;;;14.30;6.60;;;;;;;30.28;71.80;99702.25;1633756;86;21041;-62
2021/08/10 09:03:09;;;;;;;12.45;6.25;;;;;;;30.11;76.82;99703.13;1639140;86;21094;-65
2021/08/10 09:05:44;;;;;;;10.90;6.83;;;;;;;30.05;82.54;99707.12;1622697;87;21051;-64
2021/08/10 09:08:33;;;;;;;10.03;6.53;;;;;;;29.99;81.98;99699.02;1622991;86;21115;-64
2021/08/10 09:11:05;;;;;;;10.68;6.65;;;;;;;29.86;82.12;99692.78;1617863;87;21323;-67
2021/08/10 09:13:33;;;;;;;9.98;6.40;;;;;;;29.77;86.41;99691.47;1595876;89;21019;-64
2021/08/10 09:16:05;;;;;;;23.22;7.10;;;;;;;29.77;84.97;99686.66;1624325;88;21021;-62
2021/08/10 09:18:39;;;;;;;9.85;6.67;;;;;;;29.79;87.70;99681.77;1663668;86;21604;-63
2021/08/10 09:21:11;;;;;;;12.78;5.95;;;;;;;29.84;79.88;99680.78;1620620;86;21543;-65
2021/08/10 09:23:53;;;;;;;9.75;5.87;;;;;;;29.85;79.13;99689.06;1622401;86;21809;-63
2021/08/10 09:26:24;;;;;;;16.42;7.30;;;;;;;29.87;79.39;99686.85;1622085;87;21070;-61
2021/08/10 09:28:57;;;;;;;12.07;5.97;;;;;;;29.97;80.53;99686.48;1622401;88;21578;-63
2021/08/10 09:31:46;;;;;;;9.48;5.53;;;;;;;30.13;81.95;99690.72;1623108;87;21072;-63
2021/08/10 09:34:25;;;;;;;10.53;5.22;;;;;;;30.30;77.39;99694.06;1622699;86;22444;-63
2021/08/10 09:36:54;;;;;;;7.67;5.72;;;;;;;30.44;71.12;99687.64;1621007;87;21187;-64
2021/08/10 09:39:36;;;;;;;8.23;5.37;;;;;;;30.49;62.63;99682.05;1622907;87;21036;-64
2021/08/10 09:42:09;;;;;;;8.98;4.40;;;;;;;30.40;62.05;99684.83;1622952;87;21067;-64
2021/08/10 09:45:02;;;;;;;10.58;5.17;;;;;;;30.38;62.00;99678.98;1622840;87;21139;-65
2021/08/10 09:47:36;;;;;;;10.58;5.33;;;;;;;30.41;62.61;99678.89;1622832;87;21169;-63
2021/08/10 09:50:18;;;;;;;11.40;5.10;;;;;;;30.41;57.56;99673.51;1617527;88;21840;-65
2021/08/10 09:52:45;;;;;;;10.43;4.62;;;;;;;30.39;56.18;99671.72;1622207;86;21013;-61
2021/08/10 09:55:15;;;;;;;10.50;4.67;;;;;;;30.37;53.10;99668.56;1626730;86;21103;-66
2021/08/10 09:58:03;;;;;;;8.93;4.65;;;;;;;30.26;52.54;99683.74;1666812;84;21066;-64
2021/08/10 10:00:39;;;;;;;9.40;4.78;;;;;;;30.03;51.71;99689.19;1665999;86;21660;-63
2021/08/10 10:03:25;;;;;;;9.10;5.10;;;;;;;30.03;51.71;99689.19;1670381;84;21191;-63
2021/08/10 10:05:59;;;;;;;7.62;4.25;;;;;;;29.97;50.80;99692.64;1646048;85;21048;-63
2021/08/10 10:08:26;;;;;;;7.35;4.53;;;;;;;29.98;49.23;99701.48;1683446;84;21058;-62
2021/08/10 10:10:57;;;;;;;8.83;4.75;;;;;;;30.02;49.70;99701.84;1687686;83;21069;-62
2021/08/10 10:13:26;;;;;;;9.15;5.00;;;;;;;30.17;47.84;99697.82;1689103;84;21006;-63
2021/08/10 10:15:54;;;;;;;8.85;4.55;;;;;;;30.43;45.98;99696.84;1688511;84;21159;-61
2021/08/10 10:18:22;;;;;;;9.48;3.77;;;;;;;30.78;46.21;99691.38;1686262;84;20990;-63
2021/08/10 10:20:50;;;;;;;7.80;4.37;;;;;;;31.37;44.11;99694.91;1689122;84;21586;-63
2021/08/10 10:23:21;;;;;;;8.20;3.90;;;;;;;32.05;43.96;99701.84;1686841;84;21090;-62
2021/08/10 10:25:48;;;;;;;7.53;3.62;;;;;;;32.69;40.48;99696.92;1685193;84;21525;-63
2021/08/10 10:28:15;;;;;;;10.05;4.67;;;;;;;33.20;39.59;99694.95;1686443;84;21101;-62
2021/08/10 10:30:44;;;;;;;9.83;5.08;;;;;;;33.66;37.93;99698.77;1689616;84;21003;-65
2021/08/10 10:33:12;;;;;;;7.25;3.58;;;;;;;34.06;38.19;99694.27;1689932;84;21009;-65
2021/08/10 10:35:40;;;;;;;8.93;3.85;;;;;;;34.44;36.03;99690.77;1649032;86;21029;-65
2021/08/10 10:38:07;;;;;;;7.10;4.03;;;;;;;34.46;34.20;99691.19;1647897;85;21029;-61
2021/08/10 10:40:34;;;;;;;10.55;3.90;;;;;;;34.40;34.88;99688.57;1648067;85;21111;-62
2021/08/10 10:43:01;;;;;;;6.42;3.30;;;;;;;34.48;34.97;99698.39;1647937;85;21291;-63
2021/08/10 10:45:39;;;;;;;6.65;3.10;;;;;;;34.60;34.59;99698.26;1649425;85;21047;-63
2021/08/10 10:48:29;;;;;;;7.35;3.60;;;;;;;34.75;34.85;99697.95;1648559;85;21075;-60
2021/08/10 10:51:15;;;;;;;7.15;3.33;;;;;;;34.84;33.34;99704.48;1645371;85;21143;-65
2021/08/10 10:53:43;;;;;;;4.95;2.87;;;;;;;34.59;32.26;99689.16;1646706;86;20998;-60
2021/08/10 10:56:30;;;;;;;;;;;;;;;34.33;32.94;99685.72;1650952;85;21021;-62
2021/08/10 10:59:24;;;;;;;5.95;3.15;;;;;;;34.37;32.39;99687.92;1689116;84;20130;-62
2021/08/10 11:02:18;;;;;;;7.28;3.47;;;;;;;34.49;32.11;99685.09;1677544;84;21535;-64
2021/08/10 11:05:08;;;;;;;8.20;2.90;;;;;;;34.70;32.58;99692.03;1675279;84;21039;-60
2021/08/10 11:07:45;;;;;;;;;;;;;;;34.92;31.43;99687.20;1671938;85;21090;-62
2021/08/10 11:10:45;;;;;;;4.08;2.70;;;;;;;35.03;31.23;99684.14;1665792;85;20193;-61
2021/08/10 11:13:20;;;;;;;5.10;2.70;;;;;;;35.24;31.16;99687.00;1671645;85;20987;-62
2021/08/10 11:15:52;;;;;;;6.90;3.20;;;;;;;35.50;30.18;99681.63;1654025;84;21099;-61
2021/08/10 11:18:21;;;;;;;6.10;3.35;;;;;;;35.69;29.73;99679.96;1670030;85;21406;-63
2021/08/10 11:20:51;;;;;;;7.20;3.22;;;;;;;35.71;28.79;99680.36;1627626;86;21553;-62
2021/08/10 11:23:26;;;;;;;7.03;2.70;;;;;;;35.57;28.30;99679.03;1627755;86;21558;-62
2021/08/10 11:26:05;;;;;;;4.67;2.30;;;;;;;35.31;28.71;99676.28;1671101;85;21074;-62
2021/08/10 11:28:50;;;;;;;5.65;2.47;;;;;;;35.10;28.63;99667.23;1671790;84;21396;-62
2021/08/10 11:31:41;;;;;;;3.98;2.60;;;;;;;34.93;29.51;99667.13;1670501;84;21047;-64
2021/08/10 11:34:32;;;;;;;6.00;2.72;;;;;;;34.93;30.02;99655.48;1671627;85;21158;-65